x

Cape Edgecumbe - 25nm Ssw Of Cape Edgecumbe, Ak (46084) Wave Buoy

7:50am - Fri 27th Mar 2015 All times are AKDT. -8 hours from GMT.

  • Sig Wave height 11.5ft
  • Peak Period 11s
  • Average Period 8s
  • Wind
    16mph, 18mph gusts
  • Sea Temp 47°f
  • Air Temp 46°f
  • Sea Pressure 1011.8mb
  • Cape Edgecumbe - 25nm Ssw Of Cape Edgecumbe, Ak
  • Cape Edgecumbe - 25nm Ssw Of Cape Edgecumbe, Ak

More Historic Weather Station data

Upgrade to MSW Pro to gain access to the past 30 days of data for over 8000 Wavebouys and Weather Stations around the globe.

Join Pro

Comparision Forecast

View Surf forecast
   
Fri 03/27 7:50am 11.5ft 11s 8s 16 18 mph 1011.8mb 47f 46f
6:50am 11ft 11s 8s 9 13 mph 1011.8mb 47f 45f
5:50am 11ft 11s 8s 13 18 mph 1011.8mb 47f 46f
4:50am 12ft 11s 8s 11 16 mph 1012.1mb 47f 45f
3:50am 12ft 11s 8s 13 18 mph 1012.3mb 47f 46f
2:50am 12ft 11s 8s 16 18 mph 1012.4mb 47f 46f
1:50am 11ft 11s 8s 16 18 mph 1012.4mb 47f 46f
12:50am 10.5ft 11s 8s 16 20 mph 1012.3mb 47f 46f
Thu 03/26 11:50pm 9ft 12s 7s 16 20 mph 1012.4mb 47f 46f
10:50pm 9.5ft 12s 7s 16 18 mph 1012.5mb 47f 46f
9:50pm 11ft 11s 8s 13 18 mph 1012.4mb 47f 46f
8:50pm 10.5ft 11s 8s 16 20 mph 1012.3mb 47f 46f
7:50pm 11.5ft 11s 8s 13 18 mph 1012.2mb 47f 46f
6:50pm 11ft 11s 8s 18 22 mph 1012mb 47f 46f
5:50pm 11ft 11s 8s 16 22 mph 1012.1mb 47f 47f
4:50pm 12ft 10s 8s 16 20 mph 1012.2mb 47f 47f
3:50pm 11ft 11s 7s 18 20 mph 1012.3mb 47f 47f
2:50pm 12ft 11s 8s 18 20 mph 1012.1mb 46f 46f
1:50pm 10.5ft 11s 7s 18 22 mph 1012.1mb 46f 47f
12:50pm 11.5ft 11s 7s 20 25 mph 1011.8mb 46f 47f
11:50am 10ft 11s 7s 18 25 mph 1011.1mb 46f 47f
10:50am 10ft 11s 7s 18 22 mph 1010.2mb 46f 46f
9:50am 9ft 11s 7s 18 22 mph 1009.3mb 46f 46f
8:50am 8ft 12s 6s 20 25 mph 1008.1mb 46f 46f
7:50am 9ft 11s 6s 18 25 mph 1006.8mb 46f 47f
6:50am 9ft 11s 6s 22 29 mph 1005.4mb 46f 47f
5:50am 10ft 11s 6s 22 29 mph 1004.7mb 46f 47f
4:50am 9ft 10s 6s 25 31 mph 1004.5mb 46f 47f
3:50am 8.5ft 11s 6s 25 31 mph 1004.8mb 46f 47f
2:50am 8ft 8s 6s 22 25 mph 1005mb 46f 47f
1:50am 7ft 9s 5s 22 29 mph 1005.1mb 46f 47f
12:50am 7ft 10s 5s 22 27 mph 1005mb 46f 47f
Wed 03/25 11:50pm 7ft 10s 5s 20 25 mph 1004.7mb 46f 47f
10:50pm 7ft 9s 5s 22 27 mph 1004.4mb 46f 47f
9:50pm 7ft 9s 5s 22 27 mph 1004mb 46f 47f
8:50pm 7ft 11s 6s 22 27 mph 1003.4mb 46f 47f
7:50pm 6ft 10s 5s 18 25 mph 1003.2mb 46f 47f
6:50pm 7.5ft 10s 6s 20 25 mph 1003mb 46f 47f
5:50pm 8ft 10s 6s 22 27 mph 1003.1mb 46f 47f
4:50pm 9ft 10s 6s 22 29 mph 1003.1mb 46f 47f
3:50pm 10ft 11s 6s 18 22 mph 1002.8mb 46f 47f
2:50pm 10ft 11s 6s 27 31 mph 1002.5mb 46f 46f
1:50pm 12ft 10s 6s 29 36 mph 1002mb 46f 46f
12:50pm  -   -   -  31
mph
- - 46f
11:50am 12ft 11s 7s 27 34 mph 1000.9mb 46f 45f
10:50am 12ft 11s 7s 27 31 mph 1001.2mb 46f 47f
9:50am 11ft 10s 7s 27 31 mph 1001.5mb 46f 47f
8:50am 10ft 9s 7s 25 29 mph 1002.3mb 46f 47f
7:50am 9ft 10s 7s 22 25 mph 1003mb 46f 47f
6:50am 8ft 9s 6s 20 25 mph 1003.6mb 46f 47f
5:50am 7ft 9s 6s 20 22 mph 1004.4mb 46f 47f
4:50am 6ft 7s 5s 18 22 mph 1004.9mb 46f 47f
3:50am  -   -   -  18 22 mph 1005.5mb 46f 47f
2:50am 5ft 7s 5s 18 22 mph 1006.7mb 46f 47f
1:50am 5ft 8s 5s 20 25 mph 1007.7mb 46f 47f
12:50am 4.5ft 7s 5s 20 25 mph 1008.5mb 46f 47f
Tue 03/24 11:50pm 4.5ft 9s 5s 18 22 mph 1009.2mb 46f 47f
10:50pm 4.5ft 9s 5s 16 18 mph 1009.7mb 46f 47f
9:50pm 4.5ft 9s 5s 13 16 mph 1010.2mb 46f 46f
8:50pm 4.5ft 10s 6s 11 16 mph 1010.6mb 46f 46f
7:50pm 4.5ft 10s 6s 11
mph
1011mb 46f 46f
6:50pm 5ft 8s 6s 9 11 mph 1011.5mb 47f 46f
5:50pm 5ft 9s 5s 13 16 mph 1012mb 47f 46f
4:50pm 5ft 10s 5s 16 18 mph 1012.6mb 47f 46f
3:50pm 5.5ft 10s 5s 18 20 mph 1013.1mb 47f 46f
2:50pm 5.5ft 10s 5s 20 22 mph 1013.7mb 47f 46f
1:50pm 5.5ft 11s 5s 20 25 mph 1014mb 46f 45f
12:50pm 6ft 10s 5s 18 22 mph 1014.3mb 46f 45f
11:50am 5.5ft 11s 5s 18 22 mph 1014.3mb 46f 45f
10:50am 5ft 11s 5s 22 27 mph 1014mb 46f 45f
9:50am 6ft 11s 6s 20 25 mph 1014mb 46f 44f
8:50am 5ft 11s 6s 20 25 mph 1013.8mb 46f 44f
7:50am 5ft 11s 7s 18 20 mph 1013.5mb 46f 45f
6:50am 5.5ft 11s 8s 13 16 mph 1013.5mb 46f 45f
5:50am 5ft 10s 8s 11
mph
1013.5mb 46f 45f
4:50am 6ft 11s 8s 9 11 mph 1013.4mb 46f 45f
3:50am 6ft 10s 8s 7
mph
1013.5mb 47f 45f
2:50am 6.5ft 11s 8s 4 7 mph 1013.5mb 47f 46f
1:50am 6.5ft 11s 9s 2 4 mph 1013.5mb 47f 46f
12:50am 7ft 10s 8s 2 4 mph 1013.3mb 47f 45f
Mon 03/23 11:50pm 6.5ft 11s 9s  -  2 mph 1013.1mb 46f 45f
10:50pm 6ft 11s 9s  -  2 mph 1012.9mb 46f 45f
9:50pm 6.5ft 11s 9s  -  2 mph 1012.7mb 47f 45f
8:50pm 6.5ft 12s 9s  -  2 mph 1012.5mb 47f 46f
7:50pm 6ft 13s 9s 4 7 mph 1012.1mb 47f 46f
6:50pm 6ft 12s 9s 4 7 mph 1011.8mb 47f 46f
5:50pm 6ft 12s 8s 4 7 mph 1011.5mb 47f 47f
4:50pm 6ft 11s 9s 4 7 mph 1011.3mb 47f 47f